createdAt,value
2016-02-08T00:00:17.435Z,52.18
2016-02-08T00:01:17.487Z,51.7
2016-02-08T00:02:17.536Z,52.28
2016-02-08T00:03:17.586Z,52.37
2016-02-08T00:04:17.495Z,51.7
2016-02-08T00:05:17.703Z,51.42
2016-02-08T00:06:17.752Z,51.51
2016-02-08T00:07:17.802Z,51.51
2016-02-08T00:08:17.852Z,51.51
2016-02-08T00:09:17.901Z,51.61
2016-02-08T00:10:17.966Z,51.51
2016-02-08T00:11:18.000Z,51.51
2016-02-08T00:12:18.072Z,51.22
2016-02-08T00:13:18.121Z,51.42
2016-02-08T00:14:18.171Z,51.51
2016-02-08T00:15:18.236Z,51.42
2016-02-08T00:16:18.286Z,51.42
2016-02-08T00:17:18.320Z,51.32
2016-02-08T00:18:18.385Z,51.42
2016-02-08T00:19:18.437Z,51.61
2016-02-08T00:20:18.486Z,52.18
2016-02-08T00:21:18.535Z,51.51
2016-02-08T00:22:18.585Z,51.61
2016-02-08T00:23:18.651Z,51.42
2016-02-08T00:24:18.700Z,51.61
2016-02-08T00:25:18.749Z,51.32
2016-02-08T00:26:18.798Z,51.32
2016-02-08T00:27:18.881Z,51.42
2016-02-08T00:28:18.900Z,51.42
2016-02-08T00:29:18.949Z,51.42
2016-02-08T00:30:19.030Z,51.61
2016-02-08T00:31:19.064Z,51.89
2016-02-08T00:32:19.114Z,51.42
2016-02-08T00:33:19.163Z,51.32
2016-02-08T00:34:19.229Z,51.32
2016-02-08T00:35:19.267Z,51.03
2016-02-08T00:36:19.317Z,51.32
2016-02-08T00:37:19.365Z,51.51
2016-02-08T00:38:19.430Z,51.42
2016-02-08T00:39:19.481Z,51.42
2016-02-08T00:40:19.514Z,51.51
2016-02-08T00:41:19.596Z,51.32
2016-02-08T00:42:19.630Z,51.42
2016-02-08T00:43:19.675Z,51.42
2016-02-08T00:44:19.740Z,51.32
2016-02-08T00:45:19.790Z,51.42
2016-02-08T00:46:19.840Z,51.42
2016-02-08T00:47:19.889Z,51.42
2016-02-08T00:48:19.954Z,51.61
2016-02-08T00:49:20.003Z,51.32
2016-02-08T00:50:20.053Z,51.03
2016-02-08T00:51:19.946Z,51.03
2016-02-08T00:52:20.145Z,51.13
2016-02-08T00:53:20.210Z,51.51
2016-02-08T00:54:20.275Z,51.42
2016-02-08T00:55:20.309Z,51.32
2016-02-08T00:56:20.359Z,51.13
2016-02-08T00:57:20.424Z,51.51
2016-02-08T00:58:20.474Z,51.51
2016-02-08T00:59:20.525Z,51.51
2016-02-08T01:00:20.574Z,51.42
2016-02-08T01:01:20.623Z,51.13
2016-02-08T01:02:20.677Z,51.32
2016-02-08T01:03:20.726Z,51.32
2016-02-08T01:04:20.776Z,51.32
2016-02-08T01:05:20.841Z,51.22
2016-02-08T01:06:20.891Z,51.22
2016-02-08T01:07:20.925Z,51.03
2016-02-08T01:08:21.006Z,51.22
2016-02-08T01:09:21.056Z,51.42
2016-02-08T01:10:21.090Z,51.22
2016-02-08T01:11:21.142Z,51.13
2016-02-08T01:12:21.207Z,51.22
2016-02-08T01:13:21.242Z,51.42
2016-02-08T01:14:21.307Z,51.42
2016-02-08T01:15:21.357Z,51.42
2016-02-08T01:16:21.407Z,51.32
2016-02-08T01:17:21.472Z,50.93
2016-02-08T01:18:21.506Z,51.13
2016-02-08T01:19:21.571Z,51.22
2016-02-08T01:20:21.621Z,51.13
2016-02-08T01:21:21.655Z,51.42
2016-02-08T01:22:21.720Z,51.13
2016-02-08T01:23:21.771Z,51.22
2016-02-08T01:24:21.820Z,51.32
2016-02-08T01:25:21.869Z,51.51
2016-02-08T01:26:21.934Z,51.03
2016-02-08T01:27:21.985Z,51.22
2016-02-08T01:28:22.049Z,51.22
2016-02-08T01:29:22.084Z,50.84
2016-02-08T01:30:22.133Z,51.13
2016-02-08T01:31:22.199Z,51.42
2016-02-08T01:32:22.248Z,51.03
2016-02-08T01:33:22.282Z,50.93
2016-02-08T01:34:22.362Z,51.32
2016-02-08T01:35:22.396Z,51.42
2016-02-08T01:36:22.446Z,51.51
2016-02-08T01:37:22.513Z,51.79
2016-02-08T01:38:22.562Z,51.61
2016-02-08T01:39:22.612Z,50.93
2016-02-08T01:40:22.660Z,51.32
2016-02-08T01:41:22.706Z,52.18
2016-02-08T01:42:22.773Z,52.47
2016-02-08T01:43:22.806Z,52.47
2016-02-08T01:44:22.887Z,52.75
2016-02-08T01:45:22.922Z,52.85
2016-02-08T01:46:22.971Z,52.66
2016-02-08T01:47:23.038Z,52.85
2016-02-08T01:48:23.102Z,52.56
2016-02-08T01:49:23.136Z,52.66
2016-02-08T01:50:23.187Z,52.47
2016-02-08T01:51:23.237Z,52.66
2016-02-08T01:52:23.271Z,52.87
2016-02-08T01:53:23.352Z,52.78
2016-02-08T01:54:23.416Z,52.78
2016-02-08T01:55:23.450Z,52.69
2016-02-08T01:56:23.515Z,52.47
2016-02-08T01:57:23.549Z,52.78
2016-02-08T01:58:23.584Z,52.78
2016-02-08T01:59:23.649Z,52.56
2016-02-08T02:00:23.715Z,52.87
2016-02-08T02:01:23.764Z,52.59
2016-02-08T02:02:23.813Z,52.97
2016-02-08T02:03:23.867Z,52.97
2016-02-08T02:04:23.918Z,52.4
2016-02-08T02:05:23.982Z,52.87
2016-02-08T02:06:24.017Z,52.78
2016-02-08T02:07:24.081Z,52.87
2016-02-08T02:08:24.131Z,52.87
2016-02-08T02:09:24.170Z,53.07
2016-02-08T02:10:24.220Z,52.97
2016-02-08T02:11:24.285Z,52.87
2016-02-08T02:12:24.334Z,52.78
2016-02-08T02:13:24.369Z,53.55
2016-02-08T02:14:24.434Z,53.26
2016-02-08T02:15:24.499Z,53.45
2016-02-08T02:16:24.533Z,53.55
2016-02-08T02:17:24.598Z,53.64
2016-02-08T02:18:24.648Z,52.97
2016-02-08T02:19:24.713Z,53.55
2016-02-08T02:20:24.747Z,52.97
2016-02-08T02:21:24.812Z,53.26
2016-02-08T02:22:24.862Z,53.55
2016-02-08T02:23:24.896Z,53.16
2016-02-08T02:24:24.961Z,53.45
2016-02-08T02:25:25.012Z,52.97
2016-02-08T02:26:25.062Z,53.16
2016-02-08T02:27:25.111Z,53.36
2016-02-08T02:28:25.175Z,53.64
2016-02-08T02:29:25.225Z,53.64
2016-02-08T02:30:25.275Z,53.64
2016-02-08T02:31:25.325Z,54.03
2016-02-08T02:32:25.375Z,53.64
2016-02-08T02:33:25.424Z,53.45
2016-02-08T02:34:25.474Z,53.74
2016-02-08T02:35:25.570Z,53.74
2016-02-08T02:36:25.589Z,53.45
2016-02-08T02:37:25.623Z,53.64
2016-02-08T02:38:25.691Z,53.64
2016-02-08T02:39:25.740Z,53.74
2016-02-08T02:40:25.791Z,53.93
2016-02-08T02:41:25.094Z,53.64
2016-02-08T02:42:25.908Z,53.64
2016-02-08T02:43:25.958Z,53.16
2016-02-08T02:44:26.008Z,53.74
2016-02-08T02:45:26.057Z,53.74
2016-02-08T02:46:26.125Z,53.55
2016-02-08T02:47:26.159Z,53.55
2016-02-08T02:48:26.209Z,53.74
2016-02-08T02:49:26.289Z,53.55
2016-02-08T02:50:26.323Z,53.83
2016-02-08T02:51:26.357Z,53.55
2016-02-08T02:52:26.423Z,53.74
2016-02-08T02:53:26.488Z,53.83
2016-02-08T02:54:26.524Z,53.74
2016-02-08T02:55:26.589Z,53.93
2016-02-08T02:56:26.623Z,54.32
2016-02-08T02:57:26.689Z,54.22
2016-02-08T02:58:26.739Z,54.32
2016-02-08T02:59:26.804Z,54.22
2016-02-08T03:00:26.854Z,54.32
2016-02-08T03:01:26.903Z,54.22
2016-02-08T03:02:26.968Z,53.83
2016-02-08T03:03:27.018Z,53.93
2016-02-08T03:04:27.051Z,53.83
2016-02-08T03:05:27.102Z,53.93
2016-02-08T03:06:27.151Z,53.83
2016-02-08T03:07:27.216Z,54.03
2016-02-08T03:08:27.267Z,54.22
2016-02-08T03:09:27.315Z,54.03
2016-02-08T03:10:27.365Z,54.03
2016-02-08T03:11:27.431Z,54.5
2016-02-08T03:12:27.482Z,54.5
2016-02-08T03:13:27.532Z,54.7
2016-02-08T03:14:27.580Z,54.22
2016-02-08T03:15:27.630Z,54.6
2016-02-08T03:16:27.680Z,54.41
2016-02-08T03:17:27.760Z,54.6
2016-02-08T03:18:27.796Z,54.12
2016-02-08T03:19:27.844Z,54.7
2016-02-08T03:20:27.894Z,54.6
2016-02-08T03:21:27.948Z,54.7
2016-02-08T03:22:28.014Z,54.41
2016-02-08T03:23:28.063Z,54.41
2016-02-08T03:24:28.098Z,54.41
2016-02-08T03:25:28.163Z,54.32
2016-02-08T03:26:28.211Z,54.5
2016-02-08T03:27:28.261Z,54.5
2016-02-08T03:28:28.311Z,54.41
2016-02-08T03:29:28.362Z,54.6
2016-02-08T03:30:28.411Z,54.41
2016-02-08T03:31:28.477Z,54.41
2016-02-08T03:32:28.510Z,54.5
2016-02-08T03:33:28.576Z,54.5
2016-02-08T03:34:28.625Z,54.32
2016-02-08T03:35:28.674Z,54.6
2016-02-08T03:36:28.740Z,54.5
2016-02-08T03:37:28.790Z,54.41
2016-02-08T03:38:28.840Z,54.41
2016-02-08T03:39:28.889Z,54.22
2016-02-08T03:40:28.954Z,54.22
2016-02-08T03:41:28.988Z,54.22
2016-02-08T03:42:29.040Z,54.32
2016-02-08T03:43:29.088Z,54.32
2016-02-08T03:44:29.154Z,54.79
2016-02-08T03:45:29.219Z,54.6
2016-02-08T03:46:29.268Z,54.7
2016-02-08T03:47:29.302Z,54.5
2016-02-08T03:48:29.354Z,54.79
2016-02-08T03:49:29.419Z,54.5
2016-02-08T03:50:29.472Z,54.5
2016-02-08T03:51:29.508Z,54.5
2016-02-08T03:52:29.572Z,54.5
2016-02-08T03:53:29.638Z,54.22
2016-02-08T03:54:29.672Z,54.32
2016-02-08T03:55:29.721Z,54.12
2016-02-08T03:56:29.787Z,54.32
2016-02-08T03:57:29.837Z,54.6
2016-02-08T03:58:29.887Z,54.5
2016-02-08T03:59:29.951Z,54.6
2016-02-08T04:00:29.986Z,54.5
2016-02-08T04:01:30.051Z,54.99
2016-02-08T04:02:30.100Z,54.5
2016-02-08T04:03:30.134Z,54.41
2016-02-08T04:04:30.200Z,54.5
2016-02-08T04:05:30.264Z,54.6
2016-02-08T04:06:30.299Z,54.7
2016-02-08T04:07:30.363Z,54.6
2016-02-08T04:08:30.429Z,54.6
2016-02-08T04:09:30.448Z,54.7
2016-02-08T04:10:30.514Z,55.27
2016-02-08T04:11:30.578Z,54.99
2016-02-08T04:12:30.612Z,54.89
2016-02-08T04:13:30.664Z,54.99
2016-02-08T04:14:30.730Z,54.79
2016-02-08T04:15:30.763Z,54.6
2016-02-08T04:16:30.828Z,55.08
2016-02-08T04:17:30.879Z,54.6
2016-02-08T04:18:30.944Z,55.56
2016-02-08T04:19:30.978Z,54.89
2016-02-08T04:20:31.044Z,54.7
2016-02-08T04:21:31.092Z,54.79
2016-02-08T04:22:31.143Z,54.5
2016-02-08T04:23:31.208Z,54.6
2016-02-08T04:24:31.242Z,54.6
2016-02-08T04:25:31.293Z,54.89
2016-02-08T04:26:31.358Z,55.08
2016-02-08T04:27:31.393Z,55.08
2016-02-08T04:28:31.474Z,55.08
2016-02-08T04:29:31.507Z,55.08
2016-02-08T04:30:31.558Z,54.89
2016-02-08T04:31:31.622Z,55.18
2016-02-08T04:32:31.672Z,54.99
2016-02-08T04:33:31.738Z,55.08
2016-02-08T04:34:31.772Z,55.36
2016-02-08T04:35:31.822Z,55.36
2016-02-08T04:36:31.872Z,55.46
2016-02-08T04:37:31.921Z,55.36
2016-02-08T04:38:31.987Z,54.99
2016-02-08T04:39:32.036Z,55.46
2016-02-08T04:40:32.101Z,55.85
2016-02-08T04:41:32.136Z,55.56
2016-02-08T04:42:32.200Z,55.08
2016-02-08T04:43:32.284Z,55.94
2016-02-08T04:44:32.287Z,55.36
2016-02-08T04:45:32.336Z,55.65
2016-02-08T04:46:32.417Z,55.94
2016-02-08T04:47:32.451Z,55.75
2016-02-08T04:48:32.500Z,55.75
2016-02-08T04:49:32.582Z,55.75
2016-02-08T04:50:32.615Z,55.85
2016-02-08T04:51:32.665Z,55.46
2016-02-08T04:52:32.716Z,55.46
2016-02-08T04:53:32.765Z,55.46
2016-02-08T04:54:32.815Z,55.75
2016-02-08T04:55:32.864Z,55.56
2016-02-08T04:56:32.945Z,55.56
2016-02-08T04:57:32.980Z,55.65
2016-02-08T04:58:33.028Z,55.46
2016-02-08T04:59:33.078Z,55.75
2016-02-08T05:00:33.143Z,55.56
2016-02-08T05:01:33.193Z,55.75
2016-02-08T05:02:33.243Z,55.56
2016-02-08T05:03:33.307Z,55.36
2016-02-08T05:04:33.338Z,55.56
2016-02-08T05:05:33.404Z,55.75
2016-02-08T05:06:33.454Z,55.75
2016-02-08T05:07:33.504Z,56.04
2016-02-08T05:08:33.552Z,55.75
2016-02-08T05:09:33.618Z,55.56
2016-02-08T05:10:33.667Z,55.75
2016-02-08T05:11:33.717Z,55.75
2016-02-08T05:12:33.761Z,55.65
2016-02-08T05:13:33.811Z,55.46
2016-02-08T05:14:33.860Z,55.46
2016-02-08T05:15:33.925Z,55.65
2016-02-08T05:16:33.974Z,55.65
2016-02-08T05:17:34.024Z,55.46
2016-02-08T05:18:34.074Z,55.65
2016-02-08T05:19:34.140Z,55.65
2016-02-08T05:20:34.189Z,55.75
2016-02-08T05:21:34.224Z,55.46
2016-02-08T05:22:34.282Z,55.18
2016-02-08T05:23:34.337Z,55.18
2016-02-08T05:24:34.378Z,55.56
2016-02-08T05:25:34.435Z,55.56
2016-02-08T05:26:34.460Z,55.46
2016-02-08T05:27:34.490Z,55.46
2016-02-08T05:28:34.553Z,55.85
2016-02-08T05:29:34.598Z,55.75
2016-02-08T05:30:34.644Z,55.46
2016-02-08T05:31:34.707Z,55.46
2016-02-08T05:32:34.739Z,55.46
2016-02-08T05:33:34.803Z,55.65
2016-02-08T05:34:34.851Z,55.36
2016-02-08T05:35:34.899Z,55.65
2016-02-08T05:36:34.948Z,55.65
2016-02-08T05:37:35.013Z,55.75
2016-02-08T05:38:35.063Z,55.94
2016-02-08T05:39:35.096Z,55.65
2016-02-08T05:40:35.162Z,55.75
2016-02-08T05:41:35.227Z,55.85
2016-02-08T05:42:35.279Z,56.13
2016-02-08T05:43:35.314Z,56.04
2016-02-08T05:44:35.379Z,55.94
2016-02-08T05:45:35.460Z,55.65
2016-02-08T05:46:35.478Z,55.75
2016-02-08T05:47:35.528Z,55.46
2016-02-08T05:48:35.593Z,55.65
2016-02-08T05:49:35.627Z,55.85
2016-02-08T05:50:35.676Z,56.23
2016-02-08T05:51:35.742Z,55.56
2016-02-08T05:52:35.807Z,56.04
2016-02-08T05:53:35.841Z,55.94
2016-02-08T05:54:35.891Z,55.85
2016-02-08T05:55:35.955Z,55.94
2016-02-08T05:56:35.989Z,55.46
2016-02-08T05:57:36.039Z,55.75
2016-02-08T05:58:36.104Z,55.85
2016-02-08T05:59:36.154Z,55.27
2016-02-08T06:00:36.204Z,55.85
2016-02-08T06:01:36.268Z,55.85
2016-02-08T06:02:36.320Z,56.04
2016-02-08T06:03:36.369Z,55.94
2016-02-08T06:04:36.418Z,56.23
2016-02-08T06:05:36.484Z,55.85
2016-02-08T06:06:36.517Z,55.75
2016-02-08T06:07:36.582Z,56.13
2016-02-08T06:08:36.616Z,56.13
2016-02-08T06:09:36.682Z,56.32
2016-02-08T06:10:36.747Z,55.85
2016-02-08T06:11:36.780Z,55.94
2016-02-08T06:12:36.846Z,55.94
2016-02-08T06:13:36.913Z,55.94
2016-02-08T06:14:36.933Z,55.94
2016-02-08T06:15:36.998Z,56.04
2016-02-08T06:16:37.064Z,55.75
2016-02-08T06:17:37.098Z,55.94
2016-02-08T06:18:37.147Z,55.75
2016-02-08T06:19:37.213Z,56.13
2016-02-08T06:20:37.262Z,56.04
2016-02-08T06:21:37.311Z,56.52
2016-02-08T06:22:37.361Z,56.61
2016-02-08T06:23:37.427Z,56.42
2016-02-08T06:24:37.478Z,55.94
2016-02-08T06:25:37.511Z,55.94
2016-02-08T06:26:37.575Z,55.94
2016-02-08T06:27:37.626Z,55.85
2016-02-08T06:28:37.661Z,55.85
2016-02-08T06:29:37.727Z,56.23
2016-02-08T06:30:37.792Z,56.13
2016-02-08T06:31:37.826Z,56.32
2016-02-08T06:32:37.875Z,56.42
2016-02-08T06:33:37.957Z,56.32
2016-02-08T06:34:37.990Z,55.94
2016-02-08T06:35:38.040Z,55.85
2016-02-08T06:36:38.094Z,55.75
2016-02-08T06:37:38.143Z,55.94
2016-02-08T06:38:38.224Z,55.94
2016-02-08T06:39:38.243Z,55.65
2016-02-08T06:40:38.308Z,55.85
2016-02-08T06:41:38.373Z,56.13
2016-02-08T06:42:38.407Z,55.85
2016-02-08T06:43:38.457Z,55.65
2016-02-08T06:44:38.525Z,56.13
2016-02-08T06:45:38.575Z,56.13
2016-02-08T06:46:38.608Z,56.13
2016-02-08T06:47:38.673Z,56.23
2016-02-08T06:48:38.723Z,55.85
2016-02-08T06:49:38.772Z,55.85
2016-02-08T06:50:38.840Z,56.04
2016-02-08T06:51:38.874Z,55.85
2016-02-08T06:52:38.939Z,56.42
2016-02-08T06:53:38.988Z,56.61
2016-02-08T06:54:39.038Z,56.52
2016-02-08T06:55:39.104Z,55.85
2016-02-08T06:56:39.137Z,56.52
2016-02-08T06:57:39.187Z,56.23
2016-02-08T06:58:39.254Z,56.32
2016-02-08T06:59:39.287Z,55.94
2016-02-08T07:00:39.353Z,56.13
2016-02-08T07:01:39.418Z,56.13
2016-02-08T07:02:39.452Z,56.52
2016-02-08T07:03:39.518Z,56.61
2016-02-08T07:04:39.568Z,55.94
2016-02-08T07:05:39.601Z,56.52
2016-02-08T07:06:39.672Z,56.42
2016-02-08T07:07:39.736Z,56.42
2016-02-08T07:08:39.769Z,56.61
2016-02-08T07:09:39.820Z,56.9
2016-02-08T07:10:39.900Z,56.99
2016-02-08T07:11:39.920Z,56.9
2016-02-08T07:12:39.984Z,56.81
2016-02-08T07:13:40.034Z,56.9
2016-02-08T07:14:40.086Z,56.71
2016-02-08T07:15:40.135Z,56.61
2016-02-08T07:16:40.185Z,56.52
2016-02-08T07:17:40.235Z,56.42
2016-02-08T07:18:40.299Z,56.61
2016-02-08T07:19:40.349Z,56.61
2016-02-08T07:20:40.399Z,56.81
2016-02-08T07:21:40.449Z,56.9
2016-02-08T07:22:40.513Z,56.61
2016-02-08T07:23:40.548Z,56.61
2016-02-08T07:24:40.613Z,56.32
2016-02-08T07:25:40.664Z,56.81
2016-02-08T07:26:40.728Z,56.81
2016-02-08T07:27:40.762Z,56.61
2016-02-08T07:28:40.813Z,57.19
2016-02-08T07:29:40.877Z,56.04
2016-02-08T07:30:40.926Z,50
2016-02-08T07:31:40.977Z,52.78
2016-02-08T07:32:41.041Z,54.41
2016-02-08T07:33:41.076Z,55.56
2016-02-08T07:34:41.125Z,55.85
2016-02-08T07:35:41.190Z,56.42
2016-02-08T07:36:41.240Z,56.32
2016-02-08T07:37:41.290Z,56.13
2016-02-08T07:38:41.340Z,56.23
2016-02-08T07:39:41.405Z,56.52
2016-02-08T07:40:41.752Z,56.52
2016-02-08T07:41:41.521Z,56.99
2016-02-08T07:42:41.618Z,56.81
2016-02-08T07:43:41.652Z,56.52
2016-02-08T07:44:41.688Z,56.42
2016-02-08T07:45:41.738Z,56.52
2016-02-08T07:46:41.808Z,56.71
2016-02-08T07:47:41.810Z,56.61
2016-02-08T07:48:41.891Z,56.52
2016-02-08T07:49:41.957Z,56.61
2016-02-08T07:50:41.975Z,56.42
2016-02-08T07:51:42.008Z,56.9
2016-02-08T07:52:42.089Z,56.9
2016-02-08T07:53:42.155Z,56.9
2016-02-08T07:54:42.188Z,56.71
2016-02-08T07:55:42.269Z,56.52
2016-02-08T07:56:42.413Z,56.81
2016-02-08T07:57:42.353Z,56.9
2016-02-08T07:58:42.387Z,57.09
2016-02-08T07:59:42.452Z,57.09
2016-02-08T08:00:42.534Z,57.09
2016-02-08T08:01:42.570Z,56.81
2016-02-08T08:02:42.603Z,56.81
2016-02-08T08:03:42.683Z,56.81
2016-02-08T08:04:42.734Z,56.71
2016-02-08T08:05:42.783Z,56.9
2016-02-08T08:06:42.832Z,56.42
2016-02-08T08:07:42.960Z,56.52
2016-02-08T08:08:42.947Z,56.52
2016-02-08T08:09:42.997Z,56.61
2016-02-08T08:10:43.046Z,56.71
2016-02-08T08:11:43.096Z,56.52
2016-02-08T08:12:43.114Z,57.09
2016-02-08T08:13:43.168Z,57.19
2016-02-08T08:14:43.234Z,56.61
2016-02-08T08:15:43.268Z,56.99
2016-02-08T08:16:43.363Z,56.81
2016-02-08T08:17:43.382Z,57.09
2016-02-08T08:18:43.432Z,56.9
2016-02-08T08:19:43.496Z,57.09
2016-02-08T08:20:43.546Z,57.09
2016-02-08T08:21:43.597Z,56.99
2016-02-08T08:22:43.662Z,56.99
2016-02-08T08:23:43.713Z,56.81
2016-02-08T08:24:43.777Z,56.81
2016-02-08T08:25:43.810Z,56.71
2016-02-08T08:26:43.862Z,56.61
2016-02-08T08:27:43.895Z,56.61
2016-02-08T08:28:43.960Z,56.52
2016-02-08T08:29:44.092Z,56.52
2016-02-08T08:30:47.156Z,56.81
2016-02-08T08:31:44.128Z,56.9
2016-02-08T08:32:44.193Z,56.99
2016-02-08T08:33:44.352Z,56.9
2016-02-08T08:34:44.293Z,56.81
2016-02-08T08:35:44.327Z,56.61
2016-02-08T08:36:44.424Z,56.71
2016-02-08T08:37:44.489Z,56.52
2016-02-08T08:38:44.475Z,56.81
2016-02-08T08:39:44.542Z,56.9
2016-02-08T08:40:44.606Z,57.09
2016-02-08T08:41:44.671Z,56.71
2016-02-08T08:42:44.754Z,57.28
2016-02-08T08:43:44.756Z,57.28
2016-02-08T08:44:44.962Z,57.38
2016-02-08T08:45:44.855Z,57.09
2016-02-08T08:46:45.014Z,56.99
2016-02-08T08:47:44.970Z,57.28
2016-02-08T08:48:45.020Z,57.28
2016-02-08T08:49:45.070Z,57.38
2016-02-08T08:50:45.166Z,57.38
2016-02-08T08:51:45.169Z,56.99
2016-02-08T08:52:45.283Z,57.09
2016-02-08T08:53:45.269Z,56.99
2016-02-08T08:54:45.381Z,56.52
2016-02-08T08:55:45.400Z,57.09
2016-02-08T08:56:45.434Z,56.81
2016-02-08T08:57:45.484Z,56.99
2016-02-08T08:58:45.549Z,56.71
2016-02-08T08:59:45.645Z,56.81
2016-02-08T09:00:45.648Z,57.09
2016-02-08T09:01:45.684Z,57.38
2016-02-08T09:02:45.764Z,57.38
2016-02-08T09:03:45.814Z,57.67
2016-02-08T09:04:45.852Z,57.86
2016-02-08T09:05:45.901Z,57.57
2016-02-08T09:06:45.982Z,57.28
2016-02-08T09:07:46.016Z,57.86
2016-02-08T09:08:46.065Z,57.76
2016-02-08T09:09:46.131Z,57.76
2016-02-08T09:10:46.165Z,57.76
2016-02-08T09:11:46.218Z,57.57
2016-02-08T09:12:46.267Z,57.57
2016-02-08T09:13:46.348Z,57.38
2016-02-08T09:14:46.384Z,57.57
2016-02-08T09:15:46.433Z,57.38
2016-02-08T09:16:46.466Z,57.67
2016-02-08T09:17:46.533Z,57.76
2016-02-08T09:18:46.645Z,57.57
2016-02-08T09:19:46.632Z,57.67
2016-02-08T09:20:46.684Z,57.76
2016-02-08T09:21:46.749Z,57.86
2016-02-08T09:22:46.846Z,57.86
2016-02-08T09:23:46.926Z,57.57
2016-02-08T09:24:46.883Z,57.76
2016-02-08T09:25:46.979Z,57.76
2016-02-08T09:26:47.059Z,57.48
2016-02-08T09:27:47.079Z,57.67
2016-02-08T09:28:47.143Z,58.15
2016-02-08T09:29:47.208Z,57.86
2016-02-08T09:30:47.228Z,58.34
2016-02-08T09:31:47.261Z,58.24
2016-02-08T09:32:47.358Z,57.95
2016-02-08T09:33:47.407Z,58.15
2016-02-08T09:34:47.425Z,57.86
2016-02-08T09:35:47.506Z,57.19
2016-02-08T09:36:47.524Z,58.15
2016-02-08T09:37:47.589Z,57.19
2016-02-08T09:38:47.639Z,57.48
2016-02-08T09:39:47.689Z,57.57
2016-02-08T09:40:47.740Z,57.67
2016-02-08T09:41:47.804Z,57.67
2016-02-08T09:42:47.853Z,57.76
2016-02-08T09:43:48.045Z,57.86
2016-02-08T09:44:48.017Z,58.24
2016-02-08T09:45:48.005Z,58.15
2016-02-08T09:46:48.055Z,58.15
2016-02-08T09:47:48.182Z,57.76
2016-02-08T09:48:48.216Z,57.67
2016-02-08T09:49:48.234Z,57.57
2016-02-08T09:50:48.283Z,57.67
2016-02-08T09:51:48.318Z,58.34
2016-02-08T09:52:48.384Z,57.57
2016-02-08T09:53:48.451Z,57.67
2016-02-08T09:54:48.484Z,57.09
2016-02-08T09:55:48.564Z,57.76
2016-02-08T09:56:48.599Z,57.76
2016-02-08T09:57:48.633Z,56.9
2016-02-08T09:58:48.681Z,57.67
2016-02-08T09:59:48.857Z,57.76
2016-02-08T10:00:48.906Z,57.38
2016-02-08T10:01:48.831Z,57.09
2016-02-08T10:02:48.897Z,57.19
2016-02-08T10:03:48.961Z,57.19
2016-02-08T10:04:48.995Z,57.19
2016-02-08T10:05:49.044Z,57.38
2016-02-08T10:06:49.116Z,57.19
2016-02-08T10:07:49.149Z,57.19
2016-02-08T10:08:49.261Z,57.28
2016-02-08T10:09:49.327Z,57.28
2016-02-08T10:10:49.330Z,57.28
2016-02-08T10:11:49.395Z,57.38
2016-02-08T10:12:49.413Z,57.57
2016-02-08T10:13:49.510Z,57.48
2016-02-08T10:14:49.546Z,57.57
2016-02-08T10:15:49.595Z,57.57
2016-02-08T10:16:49.629Z,56.99
2016-02-08T10:17:49.710Z,57.76
2016-02-08T10:18:49.744Z,58.24
2016-02-08T10:19:49.795Z,57.86
2016-02-08T10:20:49.844Z,58.15
2016-02-08T10:21:49.925Z,57.38
2016-02-08T10:22:49.959Z,58.15
2016-02-08T10:23:50.086Z,57.95
2016-02-08T10:24:50.042Z,57.67
2016-02-08T10:25:50.170Z,57.57
2016-02-08T10:26:50.141Z,57.95
2016-02-08T10:27:50.208Z,58.05
2016-02-08T10:28:50.288Z,57.48
2016-02-08T10:29:50.291Z,57.28
2016-02-08T10:30:50.449Z,57.95
2016-02-08T10:31:53.469Z,58.15
2016-02-08T10:32:50.486Z,57.95
2016-02-08T10:33:50.521Z,58.15
2016-02-08T10:34:50.555Z,58.15
2016-02-08T10:35:50.619Z,57.19
2016-02-08T10:36:50.669Z,58.15
2016-02-08T10:37:50.735Z,57.95
2016-02-08T10:38:50.784Z,58.15
2016-02-08T10:39:50.819Z,57.67
2016-02-08T10:40:50.899Z,57.86
2016-02-08T10:41:50.965Z,57.86
2016-02-08T10:42:50.984Z,57.95
2016-02-08T10:43:51.033Z,57.86
2016-02-08T10:44:51.099Z,57.95
2016-02-08T10:45:51.164Z,57.76
2016-02-08T10:46:51.229Z,57.67
2016-02-08T10:47:51.247Z,57.76
2016-02-08T10:48:51.298Z,57.57
2016-02-08T10:49:51.347Z,57.86
2016-02-08T10:50:51.427Z,58.05
2016-02-08T10:51:51.446Z,57.95
2016-02-08T10:52:51.511Z,57.28
2016-02-08T10:53:51.576Z,58.15
2016-02-08T10:54:51.641Z,57.95
2016-02-08T10:55:51.674Z,58.05
2016-02-08T10:56:51.725Z,58.24
2016-02-08T10:57:51.758Z,57.57
2016-02-08T10:58:51.824Z,57.19
2016-02-08T10:59:51.936Z,58.15
2016-02-08T11:00:51.938Z,58.24
2016-02-08T11:01:51.988Z,58.15
2016-02-08T11:02:52.086Z,57.57
2016-02-08T11:03:52.120Z,57.67
2016-02-08T11:04:52.138Z,57.67
2016-02-08T11:05:52.187Z,57.19
2016-02-08T11:06:55.284Z,57.38
2016-02-08T11:07:52.286Z,57.86
2016-02-08T11:08:52.355Z,58.05
2016-02-08T11:09:52.405Z,57.67
2016-02-08T11:10:52.458Z,57.76
2016-02-08T11:11:52.507Z,58.05
2016-02-08T11:12:52.572Z,57.86
2016-02-08T11:13:52.622Z,58.24
2016-02-08T11:14:52.656Z,57.48
2016-02-08T11:15:52.721Z,57.57
2016-02-08T11:16:52.787Z,57.67
2016-02-08T11:17:52.821Z,58.15
2016-02-08T11:18:52.871Z,57.76
2016-02-08T11:19:52.936Z,57.76
2016-02-08T11:20:52.986Z,57.67
2016-02-08T11:21:53.021Z,58.08
2016-02-08T11:22:53.085Z,57.67
2016-02-08T11:23:53.151Z,57.76
2016-02-08T11:24:53.216Z,57.67
2016-02-08T11:25:53.236Z,57.67
2016-02-08T11:26:53.300Z,57.67
2016-02-08T11:27:53.335Z,57.86
2016-02-08T11:28:53.463Z,57.95
2016-02-08T11:29:53.453Z,57.76
2016-02-08T11:30:53.503Z,57.95
2016-02-08T11:31:53.646Z,57.95
2016-02-08T11:32:53.681Z,58.34
2016-02-08T11:33:53.651Z,57.86
2016-02-08T11:34:53.732Z,57.95
2016-02-08T11:35:53.766Z,57.95
2016-02-08T11:36:53.816Z,57.95
2016-02-08T11:37:53.873Z,58.05
2016-02-08T11:38:53.922Z,58.34
2016-02-08T11:39:53.988Z,57.95
2016-02-08T11:40:54.037Z,58.53
2016-02-08T11:41:54.087Z,58.24
2016-02-08T11:42:54.183Z,57.57
2016-02-08T11:43:54.188Z,57.86
2016-02-08T11:44:54.254Z,57.86
2016-02-08T11:45:54.350Z,58.34
2016-02-08T11:46:54.369Z,58.62
2016-02-08T11:47:54.434Z,58.24
2016-02-08T11:48:54.469Z,58.44
2016-02-08T11:49:54.502Z,57.95
2016-02-08T11:50:54.692Z,58.15
2016-02-08T11:51:54.618Z,58.44
2016-02-08T11:52:54.683Z,58.24
2016-02-08T11:53:54.717Z,58.34
2016-02-08T11:54:54.766Z,58.05
2016-02-08T11:55:54.817Z,58.62
2016-02-08T11:56:54.886Z,58.44
2016-02-08T11:57:54.966Z,58.72
2016-02-08T11:58:55.001Z,58.24
2016-02-08T11:59:55.038Z,58.53
2016-02-08T12:00:55.134Z,58.44
2016-02-08T12:01:55.152Z,58.44
2016-02-08T12:02:55.218Z,58.24
2016-02-08T12:03:55.330Z,58.24
2016-02-08T12:04:55.287Z,58.53
2016-02-08T12:05:55.367Z,58.24
2016-02-08T12:06:55.406Z,53.93
2016-02-08T12:07:55.456Z,51.82
2016-02-08T12:08:55.505Z,51.15
2016-02-08T12:09:55.555Z,51.03
2016-02-08T12:10:55.604Z,50.65
2016-02-08T12:11:55.670Z,51.1
2016-02-08T12:12:55.705Z,51.2
2016-02-08T12:13:55.753Z,51.93
2016-02-08T12:14:55.820Z,52.7
2016-02-08T12:15:55.869Z,53.75
2016-02-08T12:16:55.919Z,54.71
2016-02-08T12:17:56.030Z,54.23
2016-02-08T12:18:56.017Z,54.71
2016-02-08T12:19:56.114Z,55
2016-02-08T12:20:56.133Z,55.02
2016-02-08T12:21:56.197Z,55.31
2016-02-08T12:22:56.247Z,55.69
2016-02-08T12:23:56.391Z,55.6
2016-02-08T12:24:56.346Z,55.69
2016-02-08T12:25:56.396Z,55.51
2016-02-08T12:26:56.509Z,55.31
2016-02-08T12:27:56.496Z,54.83
2016-02-08T12:28:56.545Z,55.02
2016-02-08T12:29:56.627Z,55.12
2016-02-08T12:30:56.660Z,54.55
2016-02-08T12:31:56.757Z,54.55
2016-02-08T12:32:56.744Z,54.57
2016-02-08T12:33:56.808Z,54.74
2016-02-08T12:34:56.859Z,54.96
2016-02-08T12:35:56.909Z,54.86
2016-02-08T12:36:57.006Z,54.57
2016-02-08T12:37:57.024Z,54.48
2016-02-08T12:38:57.073Z,53.62
2016-02-08T12:39:57.124Z,54.28
2016-02-08T12:40:57.174Z,54.48
2016-02-08T12:41:57.223Z,54.57
2016-02-08T12:42:57.274Z,54.48
2016-02-08T12:43:57.324Z,54.19
2016-02-08T12:44:57.373Z,54.77
2016-02-08T12:45:57.422Z,54.38
2016-02-08T12:46:57.488Z,54.48
2016-02-08T12:47:57.523Z,55.05
2016-02-08T12:48:57.588Z,54.86
2016-02-08T12:49:57.637Z,55.15
2016-02-08T12:50:57.686Z,55.15
2016-02-08T12:51:57.735Z,55.05
2016-02-08T12:52:57.802Z,54.96
2016-02-08T12:53:57.866Z,54.96
2016-02-08T12:54:57.885Z,54.38